Wetterdaten: aktuell Montag, 21.09.2020 04:15
Datum Zeit Lufttemp. Wassertemp. Feuchte Luftdruck Regen Wind Richtung Richtung Windben
21.09.2020 04:15 17,3 C 0,0 C 88 % 1015,3 hPa 0,0 l/m 0,0 kts (0 Bft) O-SO 113 0,0 kts (0 Bft)
21.09.2020 04:14 17,3 C 0,0 C 88 % 1015,4 hPa 0,0 l/m 0,0 kts (0 Bft) O-SO 113 0,0 kts (0 Bft)
21.09.2020 04:13 17,3 C 0,0 C 88 % 1015,4 hPa 0,0 l/m 2,4 kts (1 Bft) O-SO 113 8,3 kts (3 Bft)
21.09.2020 04:12 17,2 C 0,0 C 88 % 1015,4 hPa 0,0 l/m 1,9 kts (1 Bft) O-SO 113 10,4 kts (3 Bft)
21.09.2020 04:11 17,2 C 0,0 C 88 % 1015,4 hPa 0,0 l/m 4,0 kts (2 Bft) O-SO 113 9,4 kts (3 Bft)
21.09.2020 04:10 17,2 C 0,0 C 89 % 1015,4 hPa 0,0 l/m 5,6 kts (2 Bft) O-SO 113 8,3 kts (3 Bft)
21.09.2020 04:09 17,1 C 0,0 C 89 % 1015,4 hPa 0,0 l/m 4,8 kts (2 Bft) O-SO 113 10,4 kts (3 Bft)
21.09.2020 04:08 17,1 C 0,0 C 89 % 1015,4 hPa 0,0 l/m 4,0 kts (2 Bft) O-SO 115 8,3 kts (3 Bft)
21.09.2020 04:07 17,1 C 0,0 C 89 % 1015,4 hPa 0,0 l/m 0,5 kts (0 Bft) O-SO 115 8,3 kts (3 Bft)
21.09.2020 04:06 17,1 C 0,0 C 88 % 1015,4 hPa 0,0 l/m 0,3 kts (0 Bft) O-SO 115 4,2 kts (2 Bft)
21.09.2020 04:05 17,1 C 0,0 C 88 % 1015,4 hPa 0,0 l/m 4,6 kts (2 Bft) O-SO 115 10,4 kts (3 Bft)
21.09.2020 04:04 17,1 C 0,0 C 88 % 1015,4 hPa 0,0 l/m 4,3 kts (2 Bft) O-SO 115 7,3 kts (3 Bft)
21.09.2020 04:03 17,2 C 0,0 C 88 % 1015,4 hPa 0,0 l/m 5,0 kts (2 Bft) O-SO 115 8,3 kts (3 Bft)
21.09.2020 04:02 17,2 C 0,0 C 88 % 1015,4 hPa 0,0 l/m 4,4 kts (2 Bft) O-SO 115 7,3 kts (3 Bft)
21.09.2020 04:01 17,2 C 0,0 C 88 % 1015,4 hPa 0,0 l/m 2,8 kts (1 Bft) O-SO 116 8,3 kts (3 Bft)
21.09.2020 04:00 17,3 C 0,0 C 88 % 1015,4 hPa 0,0 l/m 0,4 kts (0 Bft) O-SO 116 3,1 kts (2 Bft)
21.09.2020 03:59 17,3 C 0,0 C 88 % 1015,4 hPa 0,0 l/m 4,0 kts (2 Bft) O-SO 116 8,3 kts (3 Bft)
21.09.2020 03:58 17,3 C 0,0 C 88 % 1015,4 hPa 0,0 l/m 4,8 kts (2 Bft) O-SO 116 9,4 kts (3 Bft)
21.09.2020 03:57 17,3 C 0,0 C 87 % 1015,4 hPa 0,0 l/m 4,5 kts (2 Bft) O-SO 116 7,3 kts (3 Bft)
21.09.2020 03:56 17,4 C 0,0 C 87 % 1015,4 hPa 0,0 l/m 4,8 kts (2 Bft) O-SO 116 8,3 kts (3 Bft)
21.09.2020 03:55 17,4 C 0,0 C 87 % 1015,4 hPa 0,0 l/m 0,0 kts (0 Bft) O-SO 116 0,0 kts (0 Bft)
21.09.2020 03:54 17,4 C 0,0 C 88 % 1015,4 hPa 0,0 l/m 0,0 kts (0 Bft) O-SO 116 0,0 kts (0 Bft)
21.09.2020 03:53 17,4 C 0,0 C 87 % 1015,4 hPa 0,0 l/m 0,0 kts (0 Bft) O-SO 116 0,0 kts (0 Bft)
21.09.2020 03:52 17,4 C 0,0 C 87 % 1015,5 hPa 0,0 l/m 0,0 kts (0 Bft) O-SO 116 0,0 kts (0 Bft)
21.09.2020 03:51 17,4 C 0,0 C 87 % 1015,5 hPa 0,0 l/m 0,0 kts (0 Bft) O-SO 116 0,0 kts (0 Bft)
21.09.2020 03:50 17,4 C 0,0 C 87 % 1015,5 hPa 0,0 l/m 0,0 kts (0 Bft) O-SO 116 0,0 kts (0 Bft)
21.09.2020 03:49 17,4 C 0,0 C 87 % 1015,4 hPa 0,0 l/m 0,0 kts (0 Bft) O-SO 116 0,0 kts (0 Bft)
21.09.2020 03:48 17,4 C 0,0 C 87 % 1015,5 hPa 0,0 l/m 0,0 kts (0 Bft) O-SO 116 0,0 kts (0 Bft)
21.09.2020 03:47 17,4 C 0,0 C 87 % 1015,5 hPa 0,0 l/m 0,0 kts (0 Bft) O-SO 116 0,0 kts (0 Bft)
21.09.2020 03:46 17,4 C 0,0 C 87 % 1015,5 hPa 0,0 l/m 0,0 kts (0 Bft) O-SO 116 0,0 kts (0 Bft)
21.09.2020 03:45 17,4 C 0,0 C 87 % 1015,5 hPa 0,0 l/m 0,0 kts (0 Bft) O-SO 116 0,0 kts (0 Bft)
21.09.2020 03:44 17,4 C 0,0 C 87 % 1015,5 hPa 0,0 l/m 0,0 kts (0 Bft) O-SO 116 0,0 kts (0 Bft)
21.09.2020 03:43 17,4 C 0,0 C 87 % 1015,5 hPa 0,0 l/m 0,0 kts (0 Bft) O-SO 116 0,0 kts (0 Bft)
21.09.2020 03:42 17,4 C 0,0 C 87 % 1015,5 hPa 0,0 l/m 0,0 kts (0 Bft) O-SO 116 0,0 kts (0 Bft)
21.09.2020 03:41 17,4 C 0,0 C 87 % 1015,5 hPa 0,0 l/m 0,0 kts (0 Bft) O-SO 116 0,0 kts (0 Bft)
21.09.2020 03:40 17,4 C 0,0 C 87 % 1015,5 hPa 0,0 l/m 0,0 kts (0 Bft) O-SO 116 0,0 kts (0 Bft)
21.09.2020 03:39 17,4 C 0,0 C 87 % 1015,5 hPa 0,0 l/m 0,0 kts (0 Bft) O-SO 116 0,0 kts (0 Bft)
21.09.2020 03:38 17,5 C 0,0 C 87 % 1015,5 hPa 0,0 l/m 0,0 kts (0 Bft) O-SO 116 0,0 kts (0 Bft)
21.09.2020 03:37 17,5 C 0,0 C 87 % 1015,6 hPa 0,0 l/m 0,0 kts (0 Bft) O-SO 116 0,0 kts (0 Bft)
21.09.2020 03:36 17,5 C 0,0 C 87 % 1015,5 hPa 0,0 l/m 0,0 kts (0 Bft) O-SO 116 0,0 kts (0 Bft)
21.09.2020 03:35 17,5 C 0,0 C 87 % 1015,6 hPa 0,0 l/m 0,0 kts (0 Bft) O-SO 116 0,0 kts (0 Bft)
21.09.2020 03:34 17,6 C 0,0 C 87 % 1015,6 hPa 0,0 l/m 0,0 kts (0 Bft) O-SO 116 0,0 kts (0 Bft)
21.09.2020 03:33 17,6 C 0,0 C 87 % 1015,5 hPa 0,0 l/m 0,0 kts (0 Bft) O-SO 116 0,0 kts (0 Bft)
21.09.2020 03:32 17,6 C 0,0 C 87 % 1015,6 hPa 0,0 l/m 0,0 kts (0 Bft) O-SO 116 0,0 kts (0 Bft)
21.09.2020 03:31 17,5 C 0,0 C 87 % 1015,6 hPa 0,0 l/m 0,0 kts (0 Bft) O-SO 116 0,0 kts (0 Bft)
21.09.2020 03:30 17,6 C 0,0 C 87 % 1015,6 hPa 0,0 l/m 0,0 kts (0 Bft) O-SO 116 0,0 kts (0 Bft)
21.09.2020 03:29 17,5 C 0,0 C 87 % 1015,6 hPa 0,0 l/m 0,5 kts (0 Bft) O-SO 116 2,1 kts (1 Bft)
21.09.2020 03:28 17,5 C 0,0 C 87 % 1015,6 hPa 0,0 l/m 3,6 kts (2 Bft) O-SO 116 7,3 kts (3 Bft)
21.09.2020 03:27 17,5 C 0,0 C 87 % 1015,6 hPa 0,0 l/m 1,2 kts (1 Bft) O-SO 116 5,2 kts (2 Bft)
21.09.2020 03:26 17,5 C 0,0 C 88 % 1015,6 hPa 0,0 l/m 0,0 kts (0 Bft) O-SO 116 0,0 kts (0 Bft)
21.09.2020 03:25 17,5 C 0,0 C 88 % 1015,6 hPa 0,0 l/m 0,0 kts (0 Bft) O-SO 116 0,0 kts (0 Bft)
21.09.2020 03:24 17,4 C 0,0 C 88 % 1015,6 hPa 0,0 l/m 0,0 kts (0 Bft) O-SO 116 0,0 kts (0 Bft)
21.09.2020 03:23 17,4 C 0,0 C 88 % 1015,6 hPa 0,0 l/m 0,0 kts (0 Bft) O-SO 116 0,0 kts (0 Bft)
21.09.2020 03:22 17,4 C 0,0 C 88 % 1015,6 hPa 0,0 l/m 0,0 kts (0 Bft) O-SO 116 0,0 kts (0 Bft)
21.09.2020 03:21 17,4 C 0,0 C 88 % 1015,6 hPa 0,0 l/m 0,0 kts (0 Bft) O-SO 116 0,0 kts (0 Bft)
21.09.2020 03:20 17,4 C 0,0 C 88 % 1015,6 hPa 0,0 l/m 0,0 kts (0 Bft) O-SO 116 0,0 kts (0 Bft)
21.09.2020 03:19 17,4 C 0,0 C 88 % 1015,6 hPa 0,0 l/m 0,0 kts (0 Bft) O-SO 116 0,0 kts (0 Bft)
21.09.2020 03:18 17,4 C 0,0 C 88 % 1015,6 hPa 0,0 l/m 0,0 kts (0 Bft) O-SO 116 0,0 kts (0 Bft)
21.09.2020 03:17 17,3 C 0,0 C 88 % 1015,6 hPa 0,0 l/m 0,0 kts (0 Bft) O-SO 116 0,0 kts (0 Bft)
21.09.2020 03:16 17,3 C 0,0 C 88 % 1015,6 hPa 0,0 l/m 0,0 kts (0 Bft) O-SO 116 0,0 kts (0 Bft)
21.09.2020 03:15 17,3 C 0,0 C 89 % 1015,6 hPa 0,0 l/m 0,0 kts (0 Bft) O-SO 116 0,0 kts (0 Bft)
_ Min-Zeit 04:04 00:00 00:18 00:00 - 00:00 - - 00:00
Minimum _ 17,1 C 0,0 C 84 % 1015,0 hPa - 0,0 kts (0 Bft) - - 0,0 kts (0 Bft)
_ Max-Zeit 00:12 00:00 02:47 02:22 00:00 04:10 - - 04:05
Maximum _ 18,6 C 0,0 C 91 % 1015,8 hPa 0,0 l/m 5,6 kts
O-SO (2 Bft)
- - 10,4 kts
O-SO (3 Bft)
Durchschnitt _ 17,5 C 0,0 C 87 % 1015,5 hPa #0,0 l/m 1,0 kts (1 Bft) O-SO - 2,2 kts (1 Bft)